Stetsonville, WI

5:42 AM CDT on April 21, 2015 (GMT -0500)
Taylor County | | Change Station
CLOSE
Current Station
Airport
Location: Medford,
Elevation: 1470 ft
Nearby Weather Stations

Elev 1470 ft 45.10 °N, 90.30 °W | Updated 27 minutes ago

Light Snow
Light Snow
31 °F
Feels Like 22 °F
N
10
Wind Variable Wind from West
Gusts 17 mph

Today
High -- | Low -- °F
--% Chance of Precip.
Yesterday
High -- | Low -- °F
Precip. -- in
6:06 AM 7:54 PM
Waxing Crescent, 9% visible
Pressure 29.38 in
Visibility 2.5 miles
Clouds Overcast 800 ft
Windchill 22 °F
Dew Point 30 °F
Humidity 94%
Rainfall 0.00 in
Snow Depth Not available.
UV 0 out of 12
Pollen 7.50 out of 12
Air Quality Not available.
Flu Activity Local Activity
METAR KMDZ 211015Z AUTO 26009G15KT 2 1/2SM -SN OVC008 00/M01 A2938 RMK AO2 T10051013

More Conditions Fewer Conditions

Pressure 29.38 in
Visibility 2.5 miles
Clouds Overcast 800 ft
Windchill 22 °F
Dew Point 30 °F
Humidity 94%
Rainfall 0.00 in
Snow Depth Not available.
UV 0 out of 12
Pollen 7.50 out of 12
Air Quality Not available.
Flu Activity Local Activity
METAR KMDZ 211015Z AUTO 26009G15KT 2 1/2SM -SN OVC008 00/M01 A2938 RMK AO2 T10051013

More Conditions Fewer Conditions

10-Day Weather Forecast

Almanac

Astronomy

Apr. 21, 2015 Rise Set
Actual Time
Civil Twilight
Nautical Twilight
Astronomical Twilight
Moon
Length of Visible Light
Length of Day
Tomorrow will be .
, % of the Moon is Illuminated

Today's Extremes

State Highs State Lows

Community

WunderPhotos

Upload Photos

1,815,340 photos uploaded!

WunderBlogs® & News

Nearby

Air Quality

  Air Quality AQ Index Pollutant
Not available.

Snow Depth

Station Depth Elevation

Earthquake Activity

City Distance Mag. Time & Date
Minimum magnitude displayed is 2.5.

Coastal Water Temperatures

Place Temperature

Stations

Nearby Weather Stations

Station Location Temp. Windchill Dew Point Humidity Wind Precip. Elev Updated Type